Time;durP1;ratioP1;P1;durP2;ratioP2;P2;SDS_P1;SDS_P2;PMS_P1;PMS_P2;Temp;Humidity;BMP_temperature;BMP_pressure;BME280_temperature;BME280_humidity;BME280_pressure;Samples;Min_cycle;Max_cycle;Signal;HPM_P1;HPM_P2
2023/04/05 00:01:29;;;;;;;;;19.00;19.00;;;;;;;;5053103;28;8899;-93
2023/04/05 00:03:57;;;;;;;;;18.33;18.33;;;;;;;;5054650;28;11752;-86
2023/04/05 00:06:25;;;;;;;;;16.00;16.00;;;;;;;;5057185;28;11670;-94
2023/04/05 00:08:54;;;;;;;;;13.00;13.00;;;;;;;;5053975;28;8842;-91
2023/04/05 00:11:23;;;;;;;;;22.33;16.67;;;;;;;;5051005;28;11581;-92
2023/04/05 00:13:50;;;;;;;;;15.00;15.00;;;;;;;;5031299;28;11743;-96
2023/04/05 00:16:18;;;;;;;;;16.00;16.00;;;;;;;;5049335;28;11604;-91
2023/04/05 00:18:48;;;;;;;;;15.67;15.00;;;;;;;;5044396;28;11666;-90
2023/04/05 00:21:20;;;;;;;;;24.33;19.67;;;;;;;;5041665;28;11558;-91
2023/04/05 00:23:50;;;;;;;;;19.67;16.67;;;;;;;;5052269;28;8914;-85
2023/04/05 00:26:17;;;;;;;;;24.00;18.67;;;;;;;;5043665;28;11743;-85
2023/04/05 00:28:46;;;;;;;;;16.33;15.00;;;;;;;;5042629;28;11613;-88
2023/04/05 00:31:13;;;;;;;;;22.33;17.33;;;;;;;;5049865;28;11502;-91
2023/04/05 00:33:41;;;;;;;;;19.67;19.67;;;;;;;;5050416;28;8858;-90
2023/04/05 00:36:12;;;;;;;;;21.33;20.00;;;;;;;;5050032;28;11550;-91
2023/04/05 00:38:40;;;;;;;;;22.00;20.00;;;;;;;;5050428;28;8851;-92
2023/04/05 00:41:07;;;;;;;;;21.67;18.00;;;;;;;;5049223;28;8873;-90
2023/04/05 00:43:34;;;;;;;;;24.67;20.33;;;;;;;;5047624;28;8876;-87
2023/04/05 00:46:03;;;;;;;;;21.33;18.00;;;;;;;;5056701;28;8873;-93
2023/04/05 00:48:30;;;;;;;;;18.00;14.67;;;;;;;;5053755;28;8881;-91
2023/04/05 00:50:58;;;;;;;;;17.67;13.00;;;;;;;;5048297;28;8950;-87
2023/04/05 00:53:26;;;;;;;;;19.00;14.33;;;;;;;;5051149;28;8865;-91
2023/04/05 00:55:53;;;;;;;;;20.33;19.00;;;;;;;;5047596;28;8866;-90
2023/04/05 00:58:21;;;;;;;;;22.33;22.33;;;;;;;;5056602;28;8886;-88
2023/04/05 01:01:00;;;;;;;;;17.33;13.67;;;;;;;;5057605;28;8787;-83
2023/04/05 01:03:33;;;;;;;;;18.67;14.67;;;;;;;;5039093;28;8854;-84
2023/04/05 01:06:09;;;;;;;;;22.00;21.33;;;;;;;;5037249;28;11569;-87
2023/04/05 01:08:45;;;;;;;;;18.67;17.33;;;;;;;;5044531;28;9633;-89
2023/04/05 01:11:13;;;;;;;;;26.33;24.33;;;;;;;;5049941;28;8988;-88
2023/04/05 01:13:40;;;;;;;;;33.00;30.33;;;;;;;;5049467;28;8858;-91
2023/04/05 01:16:07;;;;;;;;;34.67;28.00;;;;;;;;5049077;28;8859;-85
2023/04/05 01:18:36;;;;;;;;;33.67;27.00;;;;;;;;5049605;28;8847;-87
2023/04/05 01:21:36;;;;;;;;;38.00;28.00;;;;;;;;5050921;28;8862;-90
2023/04/05 01:24:16;;;;;;;;;23.67;20.33;;;;;;;;5056833;28;8932;-95
2023/04/05 01:26:56;;;;;;;;;26.00;25.00;;;;;;;;5047271;28;9001;-95
2023/04/05 01:29:42;;;;;;;;;25.67;22.33;;;;;;;;5049774;28;8871;-94
2023/04/05 01:32:15;;;;;;;;;25.67;21.33;;;;;;;;5038546;28;8931;-94
2023/04/05 01:34:50;;;;;;;;;12.00;8.00;;;;;;;;5038564;28;8846;-93
2023/04/05 01:37:20;;;;;;;;;27.33;25.00;;;;;;;;5049336;28;8887;-93
2023/04/05 01:39:49;;;;;;;;;35.33;26.67;;;;;;;;5049901;28;8894;-96
2023/04/05 01:42:23;;;;;;;;;24.00;24.00;;;;;;;;5049557;28;8843;-96
2023/04/05 01:44:53;;;;;;;;;37.00;30.33;;;;;;;;5049574;28;8860;-88
2023/04/05 01:47:21;;;;;;;;;24.33;20.00;;;;;;;;5049286;28;8855;-95
2023/04/05 01:49:48;;;;;;;;;28.33;19.67;;;;;;;;5050524;28;8862;-94
2023/04/05 01:52:15;;;;;;;;;18.33;18.33;;;;;;;;5052931;28;8855;-91
2023/04/05 01:54:42;;;;;;;;;20.33;19.67;;;;;;;;5057860;28;8966;-90
2023/04/05 01:57:10;;;;;;;;;22.67;19.00;;;;;;;;5044612;28;8883;-90
2023/04/05 01:59:37;;;;;;;;;24.67;19.00;;;;;;;;5045778;28;9017;-85
2023/04/05 02:02:08;;;;;;;;;18.33;14.33;;;;;;;;5061466;28;8785;-88
2023/04/05 02:04:42;;;;;;;;;20.67;18.33;;;;;;;;5065119;28;8869;-87
2023/04/05 02:07:09;;;;;;;;;19.67;15.67;;;;;;;;5047013;28;8877;-87
2023/04/05 02:09:37;;;;;;;;;21.00;19.33;;;;;;;;5044716;28;8862;-86
2023/04/05 02:12:04;;;;;;;;;19.00;16.00;;;;;;;;5048421;28;8892;-85
2023/04/05 02:14:32;;;;;;;;;24.00;20.00;;;;;;;;5048509;28;8982;-86
2023/04/05 02:17:01;;;;;;;;;27.00;21.00;;;;;;;;5043804;28;8829;-85
2023/04/05 02:19:36;;;;;;;;;22.67;22.67;;;;;;;;5045847;28;8917;-87
2023/04/05 02:22:03;;;;;;;;;24.33;24.33;;;;;;;;5051870;28;8850;-85
2023/04/05 02:24:30;;;;;;;;;13.33;9.00;;;;;;;;5051381;28;8858;-86
2023/04/05 02:27:00;;;;;;;;;23.67;19.67;;;;;;;;5054196;28;8884;-90
2023/04/05 02:29:27;;;;;;;;;20.67;20.33;;;;;;;;5042666;28;8882;-88
2023/04/05 02:31:55;;;;;;;;;19.00;18.33;;;;;;;;5048431;28;8803;-89
2023/04/05 02:34:22;;;;;;;;;21.33;21.33;;;;;;;;5029743;28;8895;-94
2023/04/05 02:36:52;;;;;;;;;23.00;21.00;;;;;;;;5052971;28;8993;-89
2023/04/05 02:39:19;;;;;;;;;22.33;19.67;;;;;;;;5052259;28;8847;-95
2023/04/05 02:41:47;;;;;;;;;22.33;20.00;;;;;;;;5052697;28;8866;-94
2023/04/05 02:44:14;;;;;;;;;17.67;16.33;;;;;;;;5052374;28;8881;-87
2023/04/05 02:46:41;;;;;;;;;29.67;23.33;;;;;;;;5052672;28;8901;-92
2023/04/05 02:49:08;;;;;;;;;31.00;23.00;;;;;;;;5052648;28;8988;-94
2023/04/05 02:51:36;;;;;;;;;28.33;26.00;;;;;;;;5057782;28;8839;-91
2023/04/05 02:54:05;;;;;;;;;25.67;23.33;;;;;;;;5058320;28;8977;-93
2023/04/05 02:56:32;;;;;;;;;26.00;26.00;;;;;;;;5056298;28;8968;-95
2023/04/05 02:58:59;;;;;;;;;21.67;20.00;;;;;;;;5052601;28;8871;-95
2023/04/05 03:01:27;;;;;;;;;31.33;27.00;;;;;;;;5051679;28;8814;-94
2023/04/05 03:03:54;;;;;;;;;17.33;17.33;;;;;;;;5052440;28;8853;-91
2023/04/05 03:06:21;;;;;;;;;21.33;20.67;;;;;;;;5051824;28;8893;-90
2023/04/05 03:08:49;;;;;;;;;25.33;22.67;;;;;;;;5052232;28;8885;-90
2023/04/05 03:11:19;;;;;;;;;18.67;17.33;;;;;;;;5051302;28;8866;-93
2023/04/05 03:13:46;;;;;;;;;23.33;20.00;;;;;;;;5052432;28;8847;-91
2023/04/05 03:16:14;;;;;;;;;23.00;20.67;;;;;;;;5051302;28;8860;-84
2023/04/05 03:18:41;;;;;;;;;23.33;22.67;;;;;;;;5051151;28;8862;-83
2023/04/05 03:21:11;;;;;;;;;20.33;17.33;;;;;;;;5052590;28;8850;-90
2023/04/05 03:23:38;;;;;;;;;18.67;18.33;;;;;;;;5056997;28;8878;-90
2023/04/05 03:26:06;;;;;;;;;16.00;13.67;;;;;;;;5044404;28;8985;-94
2023/04/05 03:28:35;;;;;;;;;24.67;20.00;;;;;;;;5051967;28;8924;-86
2023/04/05 03:31:02;;;;;;;;;22.00;22.00;;;;;;;;5058959;28;8905;-92
2023/04/05 03:33:29;;;;;;;;;20.00;19.00;;;;;;;;5066530;28;8865;-83
2023/04/05 03:35:56;;;;;;;;;26.00;23.00;;;;;;;;5056748;28;8862;-90
2023/04/05 03:38:27;;;;;;;;;18.67;18.67;;;;;;;;5054808;28;8874;-86
2023/04/05 03:40:54;;;;;;;;;19.33;16.33;;;;;;;;5058490;28;8894;-85
2023/04/05 03:43:22;;;;;;;;;23.33;18.00;;;;;;;;5072630;28;8899;-83
2023/04/05 03:45:51;;;;;;;;;21.67;21.00;;;;;;;;5063711;28;8911;-90
2023/04/05 03:48:20;;;;;;;;;27.00;27.00;;;;;;;;5041586;28;8857;-88
2023/04/05 03:50:49;;;;;;;;;25.00;22.00;;;;;;;;5064863;28;8882;-83
2023/04/05 03:53:17;;;;;;;;;21.67;18.67;;;;;;;;5039388;28;8864;-83
2023/04/05 03:55:48;;;;;;;;;19.67;19.33;;;;;;;;5051230;28;8877;-86
2023/04/05 03:58:15;;;;;;;;;16.67;16.67;;;;;;;;5044289;28;8877;-85
2023/04/05 04:00:42;;;;;;;;;17.00;17.00;;;;;;;;5050276;28;8770;-89
2023/04/05 04:03:12;;;;;;;;;21.00;20.67;;;;;;;;5050569;28;9695;-90
2023/04/05 04:05:40;;;;;;;;;19.67;19.00;;;;;;;;5040806;28;8862;-90
2023/04/05 04:08:28;;;;;;;;;19.00;17.33;;;;;;;;5050285;28;8858;-88
2023/04/05 04:10:56;;;;;;;;;20.67;18.00;;;;;;;;5006449;28;8843;-88
2023/04/05 04:13:23;;;;;;;;;22.67;18.33;;;;;;;;5010032;28;8896;-89
2023/04/05 04:15:50;;;;;;;;;26.33;18.33;;;;;;;;5011005;28;8912;-82
2023/04/05 04:18:19;;;;;;;;;19.00;17.67;;;;;;;;4998491;28;8867;-85
2023/04/05 04:20:46;;;;;;;;;26.33;19.00;;;;;;;;5009355;28;8881;-86
2023/04/05 04:23:13;;;;;;;;;20.67;19.67;;;;;;;;5005736;28;8869;-89
2023/04/05 04:25:45;;;;;;;;;21.00;21.00;;;;;;;;5004149;28;8949;-91
2023/04/05 04:28:16;;;;;;;;;22.33;20.67;;;;;;;;4999429;28;9646;-91
2023/04/05 04:30:45;;;;;;;;;27.33;20.33;;;;;;;;5018514;28;8880;-86
2023/04/05 04:33:13;;;;;;;;;29.67;23.00;;;;;;;;5023482;28;9661;-91
2023/04/05 04:35:45;;;;;;;;;25.00;21.00;;;;;;;;5008955;28;8874;-85
2023/04/05 04:38:17;;;;;;;;;22.00;22.00;;;;;;;;5009040;28;9630;-87
2023/04/05 04:40:52;;;;;;;;;23.33;19.33;;;;;;;;5008938;28;8853;-83
2023/04/05 04:43:27;;;;;;;;;25.67;23.33;;;;;;;;4998315;28;8903;-84
2023/04/05 04:45:59;;;;;;;;;18.67;18.67;;;;;;;;5010309;28;8985;-90
2023/04/05 04:48:32;;;;;;;;;31.67;22.67;;;;;;;;5031106;28;8834;-86
2023/04/05 04:51:03;;;;;;;;;35.33;28.33;;;;;;;;5058654;28;8866;-85
2023/04/05 04:53:32;;;;;;;;;34.67;27.33;;;;;;;;5055781;28;8838;-81
2023/04/05 04:56:00;;;;;;;;;25.67;23.33;;;;;;;;5055991;28;8853;-86
2023/04/05 04:58:27;;;;;;;;;22.67;18.00;;;;;;;;5049793;28;8875;-87
2023/04/05 05:00:57;;;;;;;;;26.67;25.67;;;;;;;;5049801;28;8783;-89
2023/04/05 05:03:25;;;;;;;;;28.00;24.33;;;;;;;;5049240;28;8944;-94
2023/04/05 05:05:53;;;;;;;;;27.00;22.67;;;;;;;;5041744;28;8881;-96
2023/04/05 05:08:23;;;;;;;;;25.00;21.33;;;;;;;;5049424;28;9678;-96
2023/04/05 05:10:52;;;;;;;;;28.67;23.33;;;;;;;;5047850;28;8916;-92
2023/04/05 05:13:19;;;;;;;;;32.00;27.00;;;;;;;;5049195;28;8866;-93
2023/04/05 05:15:47;;;;;;;;;30.33;28.67;;;;;;;;5048084;28;8859;-90
2023/04/05 05:18:14;;;;;;;;;25.00;25.00;;;;;;;;5050584;28;8904;-88
2023/04/05 05:20:42;;;;;;;;;27.00;23.67;;;;;;;;5053661;28;8872;-86
2023/04/05 05:23:09;;;;;;;;;29.00;27.67;;;;;;;;5053711;28;8870;-90
2023/04/05 05:25:38;;;;;;;;;27.67;23.67;;;;;;;;5050713;28;8844;-94
2023/04/05 05:28:05;;;;;;;;;33.00;25.33;;;;;;;;5049644;28;8854;-92
2023/04/05 05:30:33;;;;;;;;;22.67;20.67;;;;;;;;5048846;28;8810;-88
2023/04/05 05:33:01;;;;;;;;;28.33;24.00;;;;;;;;5059537;28;8861;-94
2023/04/05 05:35:28;;;;;;;;;25.00;21.67;;;;;;;;5050881;28;8922;-87
2023/04/05 05:37:55;;;;;;;;;26.33;26.33;;;;;;;;5060280;28;9006;-89
2023/04/05 05:40:25;;;;;;;;;31.67;24.00;;;;;;;;5051370;28;8886;-73
2023/04/05 05:42:54;;;;;;;;;30.67;28.67;;;;;;;;5041013;28;8862;-78
2023/04/05 05:45:21;;;;;;;;;27.33;24.67;;;;;;;;5053162;28;8859;-79
2023/04/05 05:47:50;;;;;;;;;25.33;25.33;;;;;;;;5047835;28;8855;-77
2023/04/05 05:50:19;;;;;;;;;27.00;26.00;;;;;;;;5046915;28;8846;-74
2023/04/05 05:52:47;;;;;;;;;24.67;22.33;;;;;;;;5058474;28;8860;-73
2023/04/05 05:55:14;;;;;;;;;25.00;22.33;;;;;;;;5047700;28;8850;-77
2023/04/05 05:57:41;;;;;;;;;28.67;25.00;;;;;;;;5047611;28;8866;-73
2023/04/05 06:00:11;;;;;;;;;39.67;39.67;;;;;;;;5046858;28;8884;-73
2023/04/05 06:02:40;;;;;;;;;37.67;33.33;;;;;;;;5047019;28;8858;-77
2023/04/05 06:05:07;;;;;;;;;39.67;38.67;;;;;;;;5037124;28;8900;-73
2023/04/05 06:07:36;;;;;;;;;46.33;42.33;;;;;;;;5046792;28;8980;-73
2023/04/05 06:10:04;;;;;;;;;57.00;45.33;;;;;;;;5048817;28;8862;-73
2023/04/05 06:12:31;;;;;;;;;57.00;47.00;;;;;;;;5051564;28;8851;-76
2023/04/05 06:14:58;;;;;;;;;54.67;45.67;;;;;;;;5051314;28;8846;-79
2023/04/05 06:17:27;;;;;;;;;48.00;44.00;;;;;;;;5051767;28;8863;-76
2023/04/05 06:19:54;;;;;;;;;43.67;36.33;;;;;;;;5050355;28;8947;-78
2023/04/05 06:22:22;;;;;;;;;41.67;37.33;;;;;;;;5051990;28;8847;-75
2023/04/05 06:24:49;;;;;;;;;37.00;33.00;;;;;;;;5051536;28;8858;-75
2023/04/05 06:27:16;;;;;;;;;48.67;41.67;;;;;;;;5052441;28;8854;-78
2023/04/05 06:29:44;;;;;;;;;46.33;41.00;;;;;;;;5051600;28;8894;-76
2023/04/05 06:32:11;;;;;;;;;39.67;31.67;;;;;;;;5050453;28;8803;-75
2023/04/05 06:34:39;;;;;;;;;45.33;37.67;;;;;;;;5059138;28;8874;-77
2023/04/05 06:37:07;;;;;;;;;52.33;39.00;;;;;;;;5050466;28;9640;-76
2023/04/05 06:39:34;;;;;;;;;37.67;36.67;;;;;;;;5050890;28;8977;-73
2023/04/05 06:42:01;;;;;;;;;41.00;33.67;;;;;;;;5051160;28;8865;-77
2023/04/05 06:44:28;;;;;;;;;35.33;30.67;;;;;;;;5051238;28;8846;-74
2023/04/05 06:46:55;;;;;;;;;41.67;40.00;;;;;;;;5050575;28;8841;-76
2023/04/05 06:49:23;;;;;;;;;45.00;38.00;;;;;;;;5051301;28;8842;-77
2023/04/05 06:51:51;;;;;;;;;30.67;24.00;;;;;;;;5049675;28;8870;-76
2023/04/05 06:54:20;;;;;;;;;37.00;30.33;;;;;;;;5050869;28;8877;-74
2023/04/05 06:56:47;;;;;;;;;37.33;33.00;;;;;;;;5050259;28;8881;-77
2023/04/05 06:59:14;;;;;;;;;39.33;34.67;;;;;;;;5042150;28;8880;-78
2023/04/05 07:01:41;;;;;;;;;31.00;31.00;;;;;;;;5047880;28;8881;-78
2023/04/05 07:04:08;;;;;;;;;40.67;36.67;;;;;;;;5050888;28;8856;-76
2023/04/05 07:06:37;;;;;;;;;38.33;33.00;;;;;;;;5050295;28;8847;-77
2023/04/05 07:09:06;;;;;;;;;37.67;30.00;;;;;;;;5050968;28;8859;-74
2023/04/05 07:11:33;;;;;;;;;40.33;31.00;;;;;;;;5049998;28;8823;-77
2023/04/05 07:14:01;;;;;;;;;41.00;34.00;;;;;;;;5051051;28;8872;-76
2023/04/05 07:16:28;;;;;;;;;30.00;30.00;;;;;;;;5046410;28;8864;-77
2023/04/05 07:18:56;;;;;;;;;36.67;32.00;;;;;;;;5043465;28;9708;-81
2023/04/05 07:21:24;;;;;;;;;37.33;33.67;;;;;;;;5050199;28;8866;-77
2023/04/05 07:23:54;;;;;;;;;37.33;33.33;;;;;;;;5050796;28;8850;-78
2023/04/05 07:26:23;;;;;;;;;38.00;32.33;;;;;;;;5049856;28;8846;-78
2023/04/05 07:28:50;;;;;;;;;40.67;38.67;;;;;;;;5051307;28;8870;-77
2023/04/05 07:31:17;;;;;;;;;36.00;28.33;;;;;;;;5053962;28;8787;-77
2023/04/05 07:33:44;;;;;;;;;41.33;39.00;;;;;;;;5045457;28;8918;-76
2023/04/05 07:36:11;;;;;;;;;35.00;35.00;;;;;;;;5060469;28;8957;-80
2023/04/05 07:38:39;;;;;;;;;43.33;38.67;;;;;;;;5043918;28;9608;-77
2023/04/05 07:41:06;;;;;;;;;42.33;40.00;;;;;;;;5051293;28;8980;-75
2023/04/05 07:43:34;;;;;;;;;36.00;31.33;;;;;;;;5049906;28;8977;-76
2023/04/05 07:46:02;;;;;;;;;38.67;32.67;;;;;;;;5037881;28;11538;-73
2023/04/05 07:48:30;;;;;;;;;39.33;34.67;;;;;;;;5045106;28;11562;-74
2023/04/05 07:50:57;;;;;;;;;36.00;32.67;;;;;;;;5049858;28;11633;-74
2023/04/05 07:53:24;;;;;;;;;38.00;37.67;;;;;;;;5049258;28;11570;-75
2023/04/05 07:55:53;;;;;;;;;38.67;38.67;;;;;;;;5049597;28;11595;-74
2023/04/05 07:58:21;;;;;;;;;36.00;31.33;;;;;;;;5049425;28;11589;-75
2023/04/05 08:00:52;;;;;;;;;38.33;36.67;;;;;;;;5049295;28;11467;-76
2023/04/05 08:03:19;;;;;;;;;36.50;32.75;;;;;;;;5037290;28;11547;-75
2023/04/05 08:05:46;;;;;;;;;36.00;31.00;;;;;;;;5049501;28;11547;-77
2023/04/05 08:08:16;;;;;;;;;27.25;23.25;;;;;;;;5048150;28;11680;-77
2023/04/05 08:10:43;;;;;;;;;32.00;29.00;;;;;;;;5048720;28;11597;-76
2023/04/05 08:13:10;;;;;;;;;36.25;36.25;;;;;;;;5048403;28;11542;-75
2023/04/05 08:15:37;;;;;;;;;35.75;34.50;;;;;;;;5048978;28;11590;-76
2023/04/05 08:18:06;;;;;;;;;34.50;31.50;;;;;;;;5049158;28;11544;-76
2023/04/05 08:20:37;;;;;;;;;32.00;30.50;;;;;;;;5047532;28;12352;-73
2023/04/05 08:23:04;;;;;;;;;27.50;27.00;;;;;;;;5037251;28;11543;-74
2023/04/05 08:25:32;;;;;;;;;42.25;38.00;;;;;;;;5046230;28;11570;-75
2023/04/05 08:27:59;;;;;;;;;40.75;33.00;;;;;;;;5048404;28;11628;-74
2023/04/05 08:30:26;;;;;;;;;34.25;30.00;;;;;;;;5047173;28;11489;-73
2023/04/05 08:32:53;;;;;;;;;32.75;27.50;;;;;;;;5047273;28;11684;-76
2023/04/05 08:35:22;;;;;;;;;28.75;26.00;;;;;;;;5052434;28;11660;-76
2023/04/05 08:37:49;;;;;;;;;33.75;32.50;;;;;;;;5052745;28;11570;-75
2023/04/05 08:40:16;;;;;;;;;34.75;32.50;;;;;;;;5047593;28;11551;-75
2023/04/05 08:42:51;;;;;;;;;31.50;28.75;;;;;;;;5048129;28;11624;-75
2023/04/05 08:45:19;;;;;;;;;38.75;35.00;;;;;;;;5047555;28;11691;-74
2023/04/05 08:47:46;;;;;;;;;27.75;26.00;;;;;;;;5048315;28;11579;-76
2023/04/05 08:50:13;;;;;;;;;29.75;29.75;;;;;;;;5047969;28;11614;-81
2023/04/05 08:52:48;;;;;;;;;34.25;31.75;;;;;;;;5047371;28;11646;-75
2023/04/05 08:55:16;;;;;;;;;32.75;30.75;;;;;;;;5046550;28;11629;-76
2023/04/05 08:57:44;;;;;;;;;26.50;26.50;;;;;;;;5048450;28;11567;-80
2023/04/05 09:00:13;;;;;;;;;26.75;26.25;;;;;;;;5047216;28;11570;-80
2023/04/05 09:02:41;;;;;;;;;37.00;33.50;;;;;;;;5044501;28;11581;-81
2023/04/05 09:05:10;;;;;;;;;35.00;27.75;;;;;;;;5036848;28;11555;-80
2023/04/05 09:07:39;;;;;;;;;26.75;22.75;;;;;;;;5040901;28;11544;-80
2023/04/05 09:10:09;;;;;;;;;29.75;27.75;;;;;;;;5044265;28;11546;-75
2023/04/05 09:12:37;;;;;;;;;32.75;31.00;;;;;;;;5038049;28;11681;-74
2023/04/05 09:15:05;;;;;;;;;27.75;27.00;;;;;;;;5048147;28;12326;-76
2023/04/05 09:17:33;;;;;;;;;33.75;30.75;;;;;;;;5048387;28;11678;-76
2023/04/05 09:20:00;;;;;;;;;29.25;29.25;;;;;;;;5042420;28;12323;-78
2023/04/05 09:22:28;;;;;;;;;28.50;25.50;;;;;;;;5043691;28;11506;-73
2023/04/05 09:24:55;;;;;;;;;32.25;31.25;;;;;;;;5049296;28;11510;-74
2023/04/05 09:27:23;;;;;;;;;29.75;29.75;;;;;;;;5051279;28;11496;-76
2023/04/05 09:29:51;;;;;;;;;22.00;19.75;;;;;;;;5039965;28;11490;-80
2023/04/05 09:32:20;;;;;;;;;20.75;20.75;;;;;;;;5047638;28;11592;-77
2023/04/05 09:34:47;;;;;;;;;28.75;27.25;;;;;;;;5046960;28;11539;-74
2023/04/05 09:37:16;;;;;;;;;27.25;25.00;;;;;;;;5055642;28;11518;-76
2023/04/05 09:39:43;;;;;;;;;26.75;25.00;;;;;;;;5045175;28;11501;-75
2023/04/05 09:42:13;;;;;;;;;24.00;22.00;;;;;;;;5046483;28;11228;-72
2023/04/05 09:44:51;;;;;;;;;31.50;28.00;;;;;;;;5046726;28;11224;-77
2023/04/05 09:47:19;;;;;;;;;29.50;25.75;;;;;;;;5034526;28;11477;-77
2023/04/05 09:49:47;;;;;;;;;36.00;32.75;;;;;;;;5046750;28;11340;-72
2023/04/05 09:52:21;;;;;;;;;32.25;31.50;;;;;;;;5046437;28;11551;-74
2023/04/05 09:54:49;;;;;;;;;26.75;24.75;;;;;;;;5046586;28;11509;-77
2023/04/05 09:57:17;;;;;;;;;32.50;30.50;;;;;;;;5034632;28;11970;-75
2023/04/05 09:59:45;;;;;;;;;36.00;29.50;;;;;;;;5046272;28;11226;-79
2023/04/05 10:02:13;;;;;;;;;33.75;32.00;;;;;;;;5046510;28;10949;-75
2023/04/05 10:04:41;;;;;;;;;28.50;24.00;;;;;;;;5046262;28;11160;-76
2023/04/05 10:07:10;;;;;;;;;22.25;20.25;;;;;;;;5047211;28;10697;-77
2023/04/05 10:09:37;;;;;;;;;30.00;30.00;;;;;;;;5045776;28;10603;-73
2023/04/05 10:12:06;;;;;;;;;26.75;26.75;;;;;;;;5047264;28;10694;-77
2023/04/05 10:14:33;;;;;;;;;24.00;24.00;;;;;;;;5046262;28;10644;-74
2023/04/05 10:17:08;;;;;;;;;27.75;23.75;;;;;;;;5046069;28;10417;-74
2023/04/05 10:19:45;;;;;;;;;33.00;29.00;;;;;;;;5046077;28;10549;-73
2023/04/05 10:22:17;;;;;;;;;23.25;21.25;;;;;;;;5046132;28;10522;-73
2023/04/05 10:24:51;;;;;;;;;41.50;33.50;;;;;;;;5045678;28;10284;-74
2023/04/05 10:27:23;;;;;;;;;24.00;20.25;;;;;;;;5044611;28;10682;-74
2023/04/05 10:29:54;;;;;;;;;22.75;22.75;;;;;;;;5045512;28;10146;-75
2023/04/05 10:32:30;;;;;;;;;20.50;20.50;;;;;;;;5045399;28;10043;-76
2023/04/05 10:35:07;;;;;;;;;16.00;14.50;;;;;;;;5046812;28;10238;-75
2023/04/05 10:37:48;;;;;;;;;16.00;16.00;;;;;;;;5049040;28;10028;-79
2023/04/05 10:40:17;;;;;;;;;20.50;18.75;;;;;;;;5050465;28;9784;-73
2023/04/05 10:42:44;;;;;;;;;29.50;24.75;;;;;;;;5045923;28;9964;-74
2023/04/05 10:45:14;;;;;;;;;22.00;21.00;;;;;;;;5045898;28;10103;-73
2023/04/05 10:47:45;;;;;;;;;19.00;18.00;;;;;;;;5046230;28;10162;-72
2023/04/05 10:50:20;;;;;;;;;17.00;17.00;;;;;;;;5046242;28;10016;-75
2023/04/05 10:52:47;;;;;;;;;18.00;18.00;;;;;;;;5048002;28;9872;-76
2023/04/05 10:55:16;;;;;;;;;27.50;22.75;;;;;;;;5050512;28;9836;-79
2023/04/05 10:57:44;;;;;;;;;23.00;20.50;;;;;;;;5055739;28;10021;-78
2023/04/05 11:00:12;;;;;;;;;28.50;28.50;;;;;;;;5049419;28;9784;-78
2023/04/05 11:02:40;;;;;;;;;24.00;22.50;;;;;;;;5049194;28;9901;-79
2023/04/05 11:05:10;;;;;;;;;32.00;30.25;;;;;;;;5050531;28;9619;-78
2023/04/05 11:07:45;;;;;;;;;20.33;19.00;;;;;;;;5049250;28;10527;-80
2023/04/05 11:10:17;;;;;;;;;23.00;20.00;;;;;;;;5050667;28;9381;-79
2023/04/05 11:13:04;;;;;;;;;23.67;21.67;;;;;;;;5048458;28;9686;-78
2023/04/05 11:15:32;;;;;;;;;22.67;22.00;;;;;;;;5050862;28;9322;-77
2023/04/05 11:18:07;;;;;;;;;26.00;24.00;;;;;;;;5058463;28;9312;-77
2023/04/05 11:20:50;;;;;;;;;25.67;24.33;;;;;;;;5038382;28;9251;-79
2023/04/05 11:23:19;;;;;;;;;24.00;22.33;;;;;;;;5044169;28;9114;-75
2023/04/05 11:25:50;;;;;;;;;22.67;21.00;;;;;;;;5049959;28;8946;-78
2023/04/05 11:28:25;;;;;;;;;18.00;16.00;;;;;;;;5038924;28;9017;-76
2023/04/05 11:30:55;;;;;;;;;21.00;20.50;;;;;;;;5044924;28;8883;-75
2023/04/05 11:33:42;;;;;;;;;16.50;16.25;;;;;;;;5033615;28;8864;-76
2023/04/05 11:36:09;;;;;;;;;29.50;24.00;;;;;;;;5042353;28;8958;-73
2023/04/05 11:38:39;;;;;;;;;19.25;17.50;;;;;;;;5046145;28;8858;-78
2023/04/05 11:41:16;;;;;;;;;19.50;18.25;;;;;;;;5067415;28;8844;-82
2023/04/05 11:43:43;;;;;;;;;22.00;19.75;;;;;;;;5049476;28;8870;-76
2023/04/05 11:46:11;;;;;;;;;21.00;21.00;;;;;;;;5040610;28;8867;-75
2023/04/05 11:48:39;;;;;;;;;25.25;25.25;;;;;;;;5049527;28;8857;-73
2023/04/05 11:51:09;;;;;;;;;28.00;25.50;;;;;;;;5049894;28;8890;-72
2023/04/05 11:53:38;;;;;;;;;21.75;20.00;;;;;;;;5049644;28;8846;-77
2023/04/05 11:56:11;;;;;;;;;21.25;20.00;;;;;;;;5050320;28;8865;-74
2023/04/05 11:58:39;;;;;;;;;22.00;20.75;;;;;;;;5049387;28;8853;-73
2023/04/05 12:01:08;;;;;;;;;20.00;18.00;;;;;;;;5049212;28;8786;-76
2023/04/05 12:03:36;;;;;;;;;22.25;20.25;;;;;;;;5049716;28;9590;-75
2023/04/05 12:06:06;;;;;;;;;21.75;21.75;;;;;;;;5050171;28;8831;-75
2023/04/05 12:08:42;;;;;;;;;22.00;21.75;;;;;;;;5045476;28;8855;-72
2023/04/05 12:11:12;;;;;;;;;18.50;18.50;;;;;;;;5049606;28;8854;-75
2023/04/05 12:13:39;;;;;;;;;15.75;15.75;;;;;;;;5049192;28;8851;-74
2023/04/05 12:16:08;;;;;;;;;16.00;16.00;;;;;;;;5049419;28;8839;-76
2023/04/05 12:18:37;;;;;;;;;18.75;18.00;;;;;;;;5038735;28;8839;-74
2023/04/05 12:21:05;;;;;;;;;17.50;17.50;;;;;;;;5048725;28;8842;-74
2023/04/05 12:23:33;;;;;;;;;18.00;16.00;;;;;;;;5049044;28;8881;-75
2023/04/05 12:26:02;;;;;;;;;14.50;14.50;;;;;;;;5048107;28;8866;-75
2023/04/05 12:28:51;;;;;;;;;18.00;18.00;;;;;;;;5048930;28;8873;-73
2023/04/05 12:31:18;;;;;;;;;1.25;0.50;;;;;;;;5038417;28;8822;-75
2023/04/05 12:33:47;;;;;;;;;16.00;14.00;;;;;;;;5048247;28;8859;-74
2023/04/05 12:36:15;;;;;;;;;18.50;17.00;;;;;;;;5048728;28;8874;-74
2023/04/05 12:38:43;;;;;;;;;17.25;17.25;;;;;;;;5048621;28;8831;-74
2023/04/05 12:41:12;;;;;;;;;28.50;26.00;;;;;;;;5056276;28;9015;-74
2023/04/05 12:43:40;;;;;;;;;24.00;23.00;;;;;;;;5048318;28;8851;-71
2023/04/05 12:46:11;;;;;;;;;21.75;21.75;;;;;;;;5049238;28;8861;-76
2023/04/05 12:48:38;;;;;;;;;23.00;22.33;;;;;;;;5048372;28;8862;-76
2023/04/05 12:51:14;;;;;;;;;28.25;26.25;;;;;;;;5048683;28;8863;-73
2023/04/05 12:53:46;;;;;;;;;29.50;25.50;;;;;;;;5045903;28;8882;-74
2023/04/05 12:56:16;;;;;;;;;25.25;25.00;;;;;;;;5048218;28;8939;-74
2023/04/05 12:58:43;;;;;;;;;28.25;28.25;;;;;;;;5048613;28;8931;-75
2023/04/05 13:01:11;;;;;;;;;26.25;23.00;;;;;;;;5045461;28;8786;-71
2023/04/05 13:03:38;;;;;;;;;28.50;27.00;;;;;;;;5046266;28;8849;-74
2023/04/05 13:06:06;;;;;;;;;28.50;26.25;;;;;;;;5048852;28;8992;-75
2023/04/05 13:08:33;;;;;;;;;23.75;23.25;;;;;;;;5047052;28;8874;-74
2023/04/05 13:11:01;;;;;;;;;23.00;23.00;;;;;;;;5043822;28;8851;-75
2023/04/05 13:13:30;;;;;;;;;27.25;26.50;;;;;;;;5042719;28;8857;-75
2023/04/05 13:15:57;;;;;;;;;25.00;25.00;;;;;;;;5043954;28;8851;-75
2023/04/05 13:18:25;;;;;;;;;22.25;20.50;;;;;;;;5036037;28;8865;-73
2023/04/05 13:20:52;;;;;;;;;18.00;17.50;;;;;;;;5047658;28;8839;-74
2023/04/05 13:23:19;;;;;;;;;26.00;24.50;;;;;;;;5048239;28;8984;-74
2023/04/05 13:25:46;;;;;;;;;28.50;27.00;;;;;;;;5047225;28;8851;-74
2023/04/05 13:28:13;;;;;;;;;24.75;21.50;;;;;;;;5047913;28;8869;-74
2023/04/05 13:30:42;;;;;;;;;25.00;25.00;;;;;;;;5046840;28;8794;-73
2023/04/05 13:33:09;;;;;;;;;18.75;17.00;;;;;;;;5047674;28;8854;-79
2023/04/05 13:35:36;;;;;;;;;27.25;25.50;;;;;;;;5046654;28;8863;-72
2023/04/05 13:38:04;;;;;;;;;21.25;21.00;;;;;;;;5047534;28;8849;-74
2023/04/05 13:40:31;;;;;;;;;26.00;26.00;;;;;;;;5047344;28;8858;-73
2023/04/05 13:42:58;;;;;;;;;25.00;22.00;;;;;;;;5048247;28;8953;-71
2023/04/05 13:45:26;;;;;;;;;27.00;24.75;;;;;;;;5045009;28;8855;-72
2023/04/05 13:47:55;;;;;;;;;23.00;21.50;;;;;;;;5039606;28;8936;-73
2023/04/05 13:50:22;;;;;;;;;23.00;21.50;;;;;;;;5047766;28;8885;-73
2023/04/05 13:52:50;;;;;;;;;21.00;18.25;;;;;;;;5046853;28;8862;-73
2023/04/05 13:55:18;;;;;;;;;27.00;27.00;;;;;;;;5046865;28;8857;-70
2023/04/05 13:57:45;;;;;;;;;21.00;21.00;;;;;;;;5046610;28;8953;-71
2023/04/05 14:00:13;;;;;;;;;26.75;24.75;;;;;;;;5046692;28;8874;-73
2023/04/05 14:02:41;;;;;;;;;21.25;19.50;;;;;;;;5031696;28;8852;-71
2023/04/05 14:05:10;;;;;;;;;20.75;19.50;;;;;;;;5045091;28;8877;-73
2023/04/05 14:07:38;;;;;;;;;25.00;25.00;;;;;;;;5046620;28;8969;-73
2023/04/05 14:10:06;;;;;;;;;22.25;22.00;;;;;;;;5046865;28;8843;-74
2023/04/05 14:12:34;;;;;;;;;23.50;21.00;;;;;;;;5046336;28;8862;-76
2023/04/05 14:15:01;;;;;;;;;28.00;26.00;;;;;;;;5046687;28;8866;-74
2023/04/05 14:17:29;;;;;;;;;23.00;19.75;;;;;;;;5046367;28;8838;-75
2023/04/05 14:19:56;;;;;;;;;18.25;18.25;;;;;;;;5047023;28;8827;-76
2023/04/05 14:22:25;;;;;;;;;22.25;19.00;;;;;;;;5047157;28;8873;-76
2023/04/05 14:24:52;;;;;;;;;15.75;14.25;;;;;;;;5046734;28;8858;-75
2023/04/05 14:27:25;;;;;;;;;13.50;13.00;;;;;;;;5046169;28;8892;-76
2023/04/05 14:29:55;;;;;;;;;13.25;13.25;;;;;;;;5047007;28;8850;-74
2023/04/05 14:32:23;;;;;;;;;8.75;8.75;;;;;;;;5050144;28;9554;-73
2023/04/05 14:34:50;;;;;;;;;10.25;9.25;;;;;;;;5049355;28;8856;-73
2023/04/05 14:37:18;;;;;;;;;10.50;10.50;;;;;;;;5050594;28;8843;-74